createdAt,value
2018-10-19T00:02:11.596Z,13.27
2018-10-19T00:04:40.103Z,13.53
2018-10-19T00:07:08.587Z,11.67
2018-10-19T00:09:37.122Z,13.37
2018-10-19T00:12:05.961Z,13.77
2018-10-19T00:14:34.555Z,14.33
2018-10-19T00:17:03.140Z,15.57
2018-10-19T00:19:31.626Z,13.30
2018-10-19T00:22:00.155Z,11.73
2018-10-19T00:24:28.579Z,11.57
2018-10-19T00:26:57.133Z,13.27
2018-10-19T00:29:25.560Z,18.87
2018-10-19T00:31:54.003Z,15.60
2018-10-19T00:34:22.441Z,12.13
2018-10-19T00:36:50.924Z,13.50
2018-10-19T00:39:19.501Z,14.00
2018-10-19T00:41:47.923Z,15.70
2018-10-19T00:44:16.342Z,13.57
2018-10-19T00:46:44.767Z,15.50
2018-10-19T00:49:13.195Z,14.23
2018-10-19T00:51:41.651Z,15.93
2018-10-19T00:54:10.083Z,15.73
2018-10-19T00:56:38.553Z,13.77
2018-10-19T00:59:07.040Z,18.30
2018-10-19T01:01:35.428Z,17.30
2018-10-19T01:04:03.931Z,13.63
2018-10-19T01:06:32.409Z,13.90
2018-10-19T01:09:00.895Z,12.07
2018-10-19T01:11:29.340Z,15.37
2018-10-19T01:13:57.753Z,13.93
2018-10-19T01:16:26.180Z,18.93
2018-10-19T01:18:54.592Z,11.60
2018-10-19T01:21:23.057Z,15.80
2018-10-19T01:23:51.773Z,11.57
2018-10-19T01:26:20.391Z,18.33
2018-10-19T01:28:48.994Z,17.03
2018-10-19T01:31:17.530Z,15.80
2018-10-19T01:33:46.049Z,13.13
2018-10-19T01:36:14.549Z,11.03
2018-10-19T01:38:43.107Z,18.07
2018-10-19T01:43:51.769Z,13.37
2018-10-19T01:46:20.211Z,20.17
2018-10-19T01:48:48.688Z,21.73
2018-10-19T01:51:17.227Z,15.93
2018-10-19T01:53:45.574Z,13.83
2018-10-19T01:56:14.036Z,13.40
2018-10-19T01:58:42.564Z,11.77
2018-10-19T02:01:11.762Z,17.63
2018-10-19T02:03:40.208Z,18.87
2018-10-19T02:06:08.628Z,17.80
2018-10-19T02:08:37.064Z,16.23
2018-10-19T02:11:05.915Z,16.47
2018-10-19T02:13:34.463Z,17.97
2018-10-19T02:16:02.972Z,16.53
2018-10-19T02:18:31.392Z,16.00
2018-10-19T02:20:59.876Z,20.33
2018-10-19T02:23:28.301Z,19.40
2018-10-19T02:25:56.764Z,20.30
2018-10-19T02:28:25.274Z,17.87
2018-10-19T02:30:53.703Z,24.20
2018-10-19T02:33:22.115Z,18.13
2018-10-19T02:35:50.587Z,17.60
2018-10-19T02:38:19.003Z,18.23
2018-10-19T02:40:47.406Z,17.90
2018-10-19T02:43:15.850Z,19.67
2018-10-19T02:45:44.305Z,18.13
2018-10-19T02:48:12.765Z,18.73
2018-10-19T02:50:41.272Z,16.07
2018-10-19T02:53:09.733Z,18.53
2018-10-19T02:55:38.151Z,17.67
2018-10-19T02:58:06.594Z,21.73
2018-10-19T03:00:35.012Z,16.53
2018-10-19T03:03:03.459Z,14.47
2018-10-19T03:05:31.859Z,17.53
2018-10-19T03:08:00.309Z,18.27
2018-10-19T03:10:28.719Z,18.80
2018-10-19T03:12:57.166Z,13.07
2018-10-19T03:15:25.593Z,15.90
2018-10-19T03:17:54.023Z,13.23
2018-10-19T03:20:22.467Z,14.10
2018-10-19T03:22:50.926Z,14.97
2018-10-19T03:25:19.423Z,15.77
2018-10-19T03:27:47.852Z,11.03
2018-10-19T03:30:16.350Z,12.93
2018-10-19T03:32:44.778Z,15.37
2018-10-19T03:35:13.292Z,13.13
2018-10-19T03:37:41.651Z,17.37
2018-10-19T03:40:10.075Z,13.60
2018-10-19T03:42:38.536Z,14.73
2018-10-19T03:45:07.576Z,13.93
2018-10-19T03:47:36.004Z,17.50
2018-10-19T03:50:04.494Z,14.07
2018-10-19T03:52:33.099Z,15.03
2018-10-19T03:55:01.533Z,20.40
2018-10-19T03:57:30.076Z,19.13
2018-10-19T03:59:58.614Z,16.97
2018-10-19T04:02:27.082Z,13.53
2018-10-19T04:04:55.576Z,16.30
2018-10-19T04:07:24.006Z,18.27
2018-10-19T04:09:52.449Z,12.83
2018-10-19T04:12:20.900Z,15.87
2018-10-19T04:14:49.319Z,17.13
2018-10-19T04:17:17.752Z,18.10
2018-10-19T04:19:46.193Z,16.53
2018-10-19T04:22:14.622Z,22.33
2018-10-19T04:24:43.064Z,19.70
2018-10-19T04:27:11.524Z,20.87
2018-10-19T04:29:40.025Z,22.27
2018-10-19T04:32:08.509Z,25.67
2018-10-19T04:34:36.957Z,27.40
2018-10-19T04:37:06.531Z,29.20
2018-10-19T04:39:35.324Z,21.93
2018-10-19T04:42:04.870Z,23.23
2018-10-19T04:44:33.246Z,28.13
2018-10-19T04:47:01.812Z,22.60
2018-10-19T04:49:30.300Z,28.00
2018-10-19T04:51:58.720Z,26.10
2018-10-19T04:54:27.215Z,25.23
2018-10-19T04:56:55.699Z,34.77
2018-10-19T04:59:24.113Z,29.23
2018-10-19T05:01:52.615Z,31.33
2018-10-19T05:04:21.053Z,27.00
2018-10-19T05:06:49.635Z,33.73
2018-10-19T05:09:18.020Z,29.07
2018-10-19T05:11:46.438Z,33.67
2018-10-19T05:14:14.929Z,27.37
2018-10-19T05:16:43.323Z,28.27
2018-10-19T05:19:11.806Z,30.10
2018-10-19T05:21:40.250Z,30.20
2018-10-19T05:24:08.663Z,27.33
2018-10-19T05:26:37.108Z,26.90
2018-10-19T05:29:05.931Z,33.37
2018-10-19T05:31:34.380Z,25.97
2018-10-19T05:34:02.828Z,31.73
2018-10-19T05:36:31.288Z,28.67
2018-10-19T05:38:59.725Z,32.20
2018-10-19T05:41:28.174Z,29.33
2018-10-19T05:43:56.646Z,31.07
2018-10-19T05:46:25.059Z,31.57
2018-10-19T05:48:53.556Z,27.77
2018-10-19T05:51:22.011Z,29.23
2018-10-19T05:53:50.572Z,30.90
2018-10-19T05:56:19.027Z,32.13
2018-10-19T05:58:47.528Z,31.70
2018-10-19T06:01:16.048Z,26.80
2018-10-19T06:03:44.499Z,31.53
2018-10-19T06:06:12.943Z,30.40
2018-10-19T06:08:41.395Z,27.70
2018-10-19T06:11:09.928Z,29.00
2018-10-19T06:13:38.360Z,36.60
2018-10-19T06:16:06.808Z,26.63
2018-10-19T06:18:35.292Z,28.17
2018-10-19T06:21:04.080Z,29.67
2018-10-19T06:23:32.564Z,30.00
2018-10-19T06:26:01.301Z,25.77
2018-10-19T06:28:29.738Z,26.83
2018-10-19T06:30:58.206Z,26.03
2018-10-19T06:33:26.654Z,27.17
2018-10-19T06:35:55.069Z,27.37
2018-10-19T06:38:23.595Z,36.97
2018-10-19T06:40:52.110Z,33.03
2018-10-19T06:43:20.501Z,33.93
2018-10-19T06:45:48.949Z,34.77
2018-10-19T06:48:17.375Z,26.93
2018-10-19T06:50:45.832Z,24.83
2018-10-19T06:53:14.295Z,26.93
2018-10-19T06:55:42.831Z,30.53
2018-10-19T06:58:11.279Z,31.03
2018-10-19T07:00:39.695Z,32.03
2018-10-19T07:03:08.641Z,36.13
2018-10-19T07:05:37.095Z,29.23
2018-10-19T07:08:05.765Z,37.93
2018-10-19T07:10:34.128Z,36.30
2018-10-19T07:13:02.675Z,47.43
2018-10-19T07:15:31.108Z,29.23
2018-10-19T07:17:59.553Z,31.10
2018-10-19T07:20:28.074Z,31.47
2018-10-19T07:22:56.578Z,34.13
2018-10-19T07:25:24.985Z,30.07
2018-10-19T07:27:53.407Z,35.37
2018-10-19T07:30:21.833Z,29.47
2018-10-19T07:32:50.265Z,28.97
2018-10-19T07:35:18.838Z,34.27
2018-10-19T07:37:47.215Z,38.17
2018-10-19T07:40:15.703Z,35.53
2018-10-19T07:42:44.167Z,37.60
2018-10-19T07:45:12.615Z,33.00
2018-10-19T07:47:41.340Z,32.80
2018-10-19T07:50:10.018Z,31.67
2018-10-19T07:52:39.331Z,35.63
2018-10-19T07:55:08.742Z,36.67
2018-10-19T07:57:37.250Z,29.97
2018-10-19T08:00:06.864Z,35.67
2018-10-19T08:02:35.379Z,33.93
2018-10-19T08:05:03.944Z,28.27
2018-10-19T08:07:32.314Z,37.13
2018-10-19T08:10:00.780Z,35.13
2018-10-19T08:12:29.226Z,32.97
2018-10-19T08:14:57.672Z,31.47
2018-10-19T08:17:26.120Z,28.67
2018-10-19T08:19:54.544Z,36.40
2018-10-19T08:22:23.042Z,32.73
2018-10-19T08:24:52.629Z,34.53
2018-10-19T08:27:21.157Z,37.80
2018-10-19T08:29:49.552Z,33.03
2018-10-19T08:32:18.293Z,36.77
2018-10-19T08:34:46.964Z,37.30
2018-10-19T08:37:15.451Z,36.73
2018-10-19T08:39:43.888Z,32.93
2018-10-19T08:42:12.336Z,32.80
2018-10-19T08:44:40.771Z,27.60
2018-10-19T08:47:09.293Z,36.10
2018-10-19T08:49:37.676Z,37.63
2018-10-19T08:52:06.148Z,31.37
2018-10-19T08:54:34.675Z,33.20
2018-10-19T08:57:03.124Z,35.43
2018-10-19T08:59:31.579Z,37.83
2018-10-19T09:02:00.019Z,27.70
2018-10-19T09:04:28.515Z,29.83
2018-10-19T09:06:56.966Z,37.53
2018-10-19T09:09:25.431Z,34.80
2018-10-19T09:11:53.999Z,33.80
2018-10-19T09:14:33.730Z,30.73
2018-10-19T09:17:02.881Z,34.77
2018-10-19T09:19:31.281Z,33.13
2018-10-19T09:21:59.753Z,29.53
2018-10-19T09:24:28.165Z,31.53
2018-10-19T09:26:56.671Z,38.50
2018-10-19T09:29:25.171Z,32.83
2018-10-19T09:31:53.508Z,35.03
2018-10-19T09:34:21.962Z,29.37
2018-10-19T09:36:50.592Z,34.93
2018-10-19T09:39:18.927Z,40.27
2018-10-19T09:41:47.354Z,39.57
2018-10-19T09:44:15.754Z,34.57
2018-10-19T09:46:44.210Z,33.13
2018-10-19T09:49:13.860Z,31.43
2018-10-19T09:51:42.664Z,37.47
2018-10-19T09:54:12.152Z,35.23
2018-10-19T09:56:40.664Z,37.90
2018-10-19T09:59:09.303Z,37.87
2018-10-19T10:01:38.510Z,33.83
2018-10-19T10:04:07.033Z,34.83
2018-10-19T10:06:35.545Z,31.03
2018-10-19T10:09:04.971Z,38.93
2018-10-19T10:11:33.420Z,41.30
2018-10-19T10:14:01.876Z,43.27
2018-10-19T10:16:30.398Z,36.53
2018-10-19T10:18:58.842Z,39.07
2018-10-19T10:21:27.284Z,39.07
2018-10-19T10:23:55.735Z,33.87
2018-10-19T10:26:24.226Z,36.57
2018-10-19T10:28:52.684Z,37.57
2018-10-19T10:31:21.202Z,37.87
2018-10-19T10:33:50.060Z,42.63
2018-10-19T10:36:18.516Z,46.67
2018-10-19T10:38:47.059Z,39.50
2018-10-19T10:41:15.458Z,35.47
2018-10-19T10:43:43.942Z,37.10
2018-10-19T10:46:12.496Z,39.07
2018-10-19T10:48:40.893Z,34.67
2018-10-19T10:51:09.306Z,42.13
2018-10-19T10:53:37.744Z,32.77
2018-10-19T10:56:06.223Z,33.37
2018-10-19T10:58:34.624Z,35.63
2018-10-19T11:01:03.166Z,32.07
2018-10-19T11:03:31.597Z,35.93
2018-10-19T11:06:00.591Z,34.23
2018-10-19T11:08:29.070Z,26.40
2018-10-19T11:11:07.895Z,27.63
2018-10-19T11:13:36.710Z,30.00
2018-10-19T11:16:05.215Z,30.83
2018-10-19T11:18:33.680Z,28.17
2018-10-19T11:21:02.264Z,26.53
2018-10-19T11:23:30.731Z,28.83
2018-10-19T11:25:59.189Z,26.50
2018-10-19T11:28:27.665Z,28.73
2018-10-19T11:30:56.156Z,31.07
2018-10-19T11:33:24.604Z,25.87
2018-10-19T11:35:53.033Z,26.57
2018-10-19T11:38:21.478Z,34.67
2018-10-19T11:40:49.926Z,27.20
2018-10-19T11:43:18.493Z,26.63
2018-10-19T11:45:46.826Z,27.63
2018-10-19T11:48:15.232Z,27.67
2018-10-19T11:50:43.668Z,27.03
2018-10-19T11:53:12.121Z,28.37
2018-10-19T11:55:40.549Z,29.97
2018-10-19T11:58:09.094Z,24.70
2018-10-19T12:00:37.556Z,22.37
2018-10-19T12:03:05.993Z,23.10
2018-10-19T12:05:34.441Z,18.33
2018-10-19T12:08:02.865Z,23.00
2018-10-19T12:10:31.458Z,17.23
2018-10-19T12:12:59.938Z,17.83
2018-10-19T12:15:28.312Z,15.47
2018-10-19T12:17:56.740Z,17.40
2018-10-19T12:20:25.195Z,13.37
2018-10-19T12:22:53.637Z,13.57
2018-10-19T12:25:22.130Z,15.13
2018-10-19T12:27:50.630Z,16.30
2018-10-19T12:30:19.051Z,15.87
2018-10-19T12:32:47.497Z,21.43
2018-10-19T12:35:15.936Z,16.70
2018-10-19T12:37:44.418Z,16.60
2018-10-19T12:40:12.895Z,17.33
2018-10-19T12:42:42.137Z,16.23
2018-10-19T12:46:22.863Z,11.77
2018-10-19T12:48:51.315Z,16.97
2018-10-19T12:51:20.429Z,17.67
2018-10-19T12:53:49.140Z,17.53
2018-10-19T12:56:18.695Z,14.33
2018-10-19T12:58:47.807Z,17.03
2018-10-19T13:01:16.383Z,17.93
2018-10-19T13:03:44.789Z,19.03
2018-10-19T13:06:13.269Z,15.37
2018-10-19T13:08:41.730Z,14.97
2018-10-19T13:11:10.172Z,24.77
2018-10-19T13:13:38.657Z,16.80
2018-10-19T13:16:07.196Z,12.77
2018-10-19T13:18:35.651Z,13.47
2018-10-19T13:21:04.238Z,20.37
2018-10-19T13:23:33.066Z,14.63
2018-10-19T13:26:01.696Z,13.27
2018-10-19T13:28:30.518Z,20.53
2018-10-19T13:30:59.010Z,14.33
2018-10-19T13:33:27.553Z,18.80
2018-10-19T13:35:56.062Z,11.67
2018-10-19T13:38:25.029Z,15.03
2018-10-19T13:40:54.209Z,15.50
2018-10-19T13:43:23.236Z,17.80
2018-10-19T13:45:52.157Z,18.53
2018-10-19T13:48:21.201Z,18.57
2018-10-19T13:50:49.757Z,18.07
2018-10-19T13:53:18.195Z,15.63
2018-10-19T13:55:46.696Z,21.77
2018-10-19T13:58:15.141Z,15.67
2018-10-19T14:00:43.649Z,19.20
2018-10-19T14:03:12.164Z,16.33
2018-10-19T14:05:40.766Z,19.63
2018-10-19T14:08:09.079Z,17.90
2018-10-19T14:10:37.566Z,19.30
2018-10-19T14:13:06.420Z,16.10
2018-10-19T14:15:34.890Z,16.30
2018-10-19T14:18:03.812Z,20.87
2018-10-19T14:20:32.285Z,20.67
2018-10-19T14:23:00.775Z,19.43
2018-10-19T14:25:29.240Z,24.57
2018-10-19T14:27:57.692Z,22.10
2018-10-19T14:30:26.174Z,18.13
2018-10-19T14:32:54.673Z,16.27
2018-10-19T14:35:23.126Z,19.97
2018-10-19T14:37:51.592Z,22.73
2018-10-19T14:40:20.697Z,21.40
2018-10-19T14:42:49.252Z,19.53
2018-10-19T14:45:18.172Z,16.97
2018-10-19T14:47:47.370Z,19.37
2018-10-19T14:50:16.985Z,21.10
2018-10-19T14:52:45.508Z,23.63
2018-10-19T14:55:15.424Z,23.00
2018-10-19T14:57:43.996Z,20.77
2018-10-19T15:00:13.785Z,23.00
2018-10-19T15:02:42.358Z,23.67
2018-10-19T15:05:13.217Z,18.90
2018-10-19T15:07:41.716Z,23.90
2018-10-19T15:10:13.892Z,18.77
2018-10-19T15:12:42.485Z,18.37
2018-10-19T15:15:13.002Z,21.63
2018-10-19T15:17:41.439Z,20.60
2018-10-19T15:20:10.067Z,20.20
2018-10-19T15:22:38.538Z,22.43
2018-10-19T15:25:08.639Z,21.77
2018-10-19T15:27:37.803Z,23.57
2018-10-19T15:30:07.368Z,23.93
2018-10-19T15:32:41.012Z,26.33
2018-10-19T15:35:10.135Z,23.07
2018-10-19T15:37:38.757Z,22.83
2018-10-19T15:40:08.154Z,25.07
2018-10-19T15:42:36.920Z,24.87
2018-10-19T15:45:07.178Z,24.30
2018-10-19T15:47:35.588Z,24.53
2018-10-19T15:50:04.181Z,24.67
2018-10-19T15:52:32.671Z,27.33
2018-10-19T15:55:01.119Z,41.43
2018-10-19T15:57:29.701Z,29.33
2018-10-19T15:59:58.126Z,26.73
2018-10-19T16:02:26.558Z,24.23
2018-10-19T16:04:55.013Z,27.73
2018-10-19T16:07:23.467Z,26.47
2018-10-19T16:09:51.946Z,25.43
2018-10-19T16:12:20.392Z,26.47
2018-10-19T16:14:48.868Z,28.73
2018-10-19T16:17:17.369Z,27.17
2018-10-19T16:19:45.887Z,20.83
2018-10-19T16:22:14.481Z,24.37
2018-10-19T16:24:42.950Z,24.23
2018-10-19T16:27:11.568Z,21.63
2018-10-19T16:29:40.015Z,22.30
2018-10-19T16:32:08.529Z,23.17
2018-10-19T16:34:37.000Z,26.23
2018-10-19T16:37:05.529Z,19.90
2018-10-19T16:39:34.022Z,23.43
2018-10-19T16:42:02.560Z,21.37
2018-10-19T16:44:31.042Z,28.10
2018-10-19T16:46:59.551Z,24.20
2018-10-19T16:49:28.102Z,27.20
2018-10-19T16:51:56.631Z,17.20
2018-10-19T16:54:25.084Z,24.83
2018-10-19T16:56:53.730Z,30.87
2018-10-19T16:59:22.162Z,24.73
2018-10-19T17:01:50.661Z,22.67
2018-10-19T17:04:19.263Z,22.43
2018-10-19T17:06:47.716Z,22.37
2018-10-19T17:09:16.185Z,26.63
2018-10-19T17:11:44.622Z,20.80
2018-10-19T17:14:13.139Z,23.03
2018-10-19T17:16:41.727Z,19.73
2018-10-19T17:19:10.509Z,24.87
2018-10-19T17:21:38.915Z,21.57
2018-10-19T17:24:07.483Z,24.17
2018-10-19T17:26:35.892Z,22.07
2018-10-19T17:29:04.527Z,24.50
2018-10-19T17:31:33.044Z,24.43
2018-10-19T17:34:01.524Z,25.27
2018-10-19T17:36:29.986Z,23.53
2018-10-19T17:38:58.486Z,25.57
2018-10-19T17:41:26.953Z,24.50
2018-10-19T17:43:55.424Z,28.47
2018-10-19T17:46:23.911Z,25.30
2018-10-19T17:48:52.510Z,20.40
2018-10-19T17:51:20.953Z,21.97
2018-10-19T17:53:49.401Z,27.03
2018-10-19T17:56:17.826Z,24.73
2018-10-19T17:58:46.279Z,22.37
2018-10-19T18:01:14.722Z,25.77
2018-10-19T18:03:43.173Z,24.90
2018-10-19T18:06:11.722Z,27.67
2018-10-19T18:08:40.091Z,23.63
2018-10-19T18:11:08.657Z,26.83
2018-10-19T18:13:37.041Z,24.97
2018-10-19T18:16:05.629Z,31.43
2018-10-19T18:18:34.040Z,17.27
2018-10-19T18:21:02.525Z,21.57
2018-10-19T18:23:30.954Z,21.17
2018-10-19T18:25:59.464Z,24.10
2018-10-19T18:28:27.848Z,19.23
2018-10-19T18:30:56.298Z,21.37
2018-10-19T18:33:24.729Z,23.13
2018-10-19T18:35:53.172Z,21.57
2018-10-19T18:38:21.589Z,22.20
2018-10-19T18:40:49.993Z,21.97
2018-10-19T18:43:18.465Z,24.63
2018-10-19T18:45:46.930Z,21.50
2018-10-19T18:48:15.382Z,20.03
2018-10-19T18:50:43.904Z,21.63
2018-10-19T18:53:12.436Z,23.13
2018-10-19T18:55:40.846Z,17.40
2018-10-19T18:58:09.353Z,21.27
2018-10-19T19:00:37.872Z,24.23
2018-10-19T19:03:06.600Z,20.77
2018-10-19T19:05:35.055Z,26.60
2018-10-19T19:08:03.573Z,30.63
2018-10-19T19:10:31.990Z,23.17
2018-10-19T19:13:05.917Z,24.60
2018-10-19T19:15:34.337Z,27.37
2018-10-19T19:18:02.788Z,20.27
2018-10-19T19:20:31.528Z,26.30
2018-10-19T19:23:00.080Z,20.30
2018-10-19T19:25:33.813Z,22.10
2018-10-19T19:28:02.278Z,22.10
2018-10-19T19:30:30.741Z,24.63
2018-10-19T19:33:04.567Z,27.13
2018-10-19T19:35:33.032Z,21.73
2018-10-19T19:38:01.533Z,27.43
2018-10-19T19:40:34.156Z,30.10
2018-10-19T19:43:02.709Z,22.60
2018-10-19T19:45:31.242Z,26.77
2018-10-19T19:49:02.937Z,29.83
2018-10-19T19:51:31.307Z,31.63
2018-10-19T19:53:59.735Z,24.90
2018-10-19T19:56:28.229Z,25.97
2018-10-19T19:58:56.656Z,30.23
2018-10-19T20:01:25.115Z,30.27
2018-10-19T20:03:53.544Z,25.83
2018-10-19T20:06:22.112Z,23.60
2018-10-19T20:08:50.499Z,23.47
2018-10-19T20:11:18.992Z,25.03
2018-10-19T20:13:47.515Z,21.93
2018-10-19T20:16:15.974Z,24.87
2018-10-19T20:18:44.417Z,26.17
2018-10-19T20:21:12.873Z,27.80
2018-10-19T20:23:41.323Z,24.80
2018-10-19T20:26:09.854Z,28.83
2018-10-19T20:28:38.262Z,27.07
2018-10-19T20:31:06.821Z,33.40
2018-10-19T20:33:35.230Z,34.07
2018-10-19T20:36:03.670Z,29.77
2018-10-19T20:38:32.165Z,33.23
2018-10-19T20:41:00.744Z,32.33
2018-10-19T20:43:29.098Z,27.47
2018-10-19T20:45:57.540Z,32.70
2018-10-19T20:48:25.989Z,30.23
2018-10-19T20:50:54.390Z,24.33
2018-10-19T20:53:22.846Z,36.37
2018-10-19T20:55:51.287Z,34.73
2018-10-19T20:58:19.703Z,33.53
2018-10-19T21:00:48.244Z,31.20
2018-10-19T21:03:16.610Z,33.90
2018-10-19T21:05:45.043Z,32.60
2018-10-19T21:08:13.554Z,29.63
2018-10-19T21:10:41.945Z,33.27
2018-10-19T21:13:10.367Z,28.40
2018-10-19T21:15:38.839Z,28.77
2018-10-19T21:18:07.257Z,29.77
2018-10-19T21:20:35.717Z,32.87
2018-10-19T21:23:04.229Z,29.37
2018-10-19T21:25:32.623Z,26.70
2018-10-19T21:28:01.059Z,31.57
2018-10-19T21:30:29.534Z,28.17
2018-10-19T21:32:57.957Z,28.60
2018-10-19T21:35:26.402Z,27.33
2018-10-19T21:37:54.871Z,25.13
2018-10-19T21:40:23.324Z,31.17
2018-10-19T21:42:51.742Z,28.07
2018-10-19T21:45:20.150Z,26.57
2018-10-19T21:47:48.647Z,29.43
2018-10-19T21:50:21.701Z,28.73
2018-10-19T21:52:50.841Z,25.97
2018-10-19T21:55:19.304Z,21.20
2018-10-19T21:57:47.742Z,31.63
2018-10-19T22:00:16.188Z,34.67
2018-10-19T22:02:44.649Z,26.17
2018-10-19T22:05:13.151Z,28.47
2018-10-19T22:07:41.590Z,30.67
2018-10-19T22:10:10.058Z,29.87
2018-10-19T22:12:38.474Z,25.90
2018-10-19T22:15:07.462Z,30.30
2018-10-19T22:17:35.949Z,28.57
2018-10-19T22:20:04.471Z,28.47
2018-10-19T22:22:32.911Z,28.27
2018-10-19T22:25:01.385Z,28.67
2018-10-19T22:27:29.853Z,32.00
2018-10-19T22:29:58.273Z,33.63
2018-10-19T22:32:26.682Z,29.53
2018-10-19T22:34:55.135Z,26.27
2018-10-19T22:37:23.562Z,27.70
2018-10-19T22:39:52.047Z,30.70
2018-10-19T22:42:20.479Z,23.90
2018-10-19T22:44:49.162Z,21.93
2018-10-19T22:47:17.585Z,24.93
2018-10-19T22:49:45.981Z,25.23
2018-10-19T22:52:14.373Z,28.07
2018-10-19T22:54:42.805Z,25.07
2018-10-19T22:57:11.226Z,29.43
2018-10-19T22:59:39.660Z,24.43
2018-10-19T23:02:08.154Z,29.67
2018-10-19T23:04:36.558Z,28.27
2018-10-19T23:07:05.354Z,24.37
2018-10-19T23:09:33.905Z,28.20
2018-10-19T23:12:02.346Z,29.77
2018-10-19T23:14:30.787Z,31.70
2018-10-19T23:16:59.276Z,33.40
2018-10-19T23:19:27.695Z,30.50
2018-10-19T23:21:56.143Z,27.90
2018-10-19T23:24:24.612Z,23.27
2018-10-19T23:26:53.127Z,29.03
2018-10-19T23:29:21.650Z,26.70
2018-10-19T23:31:50.123Z,22.20
2018-10-19T23:34:18.610Z,28.00
2018-10-19T23:36:47.025Z,25.10
2018-10-19T23:39:15.466Z,23.40
2018-10-19T23:41:43.900Z,27.27
2018-10-19T23:44:12.372Z,23.47
2018-10-19T23:46:40.834Z,29.20
2018-10-19T23:49:09.647Z,27.40
2018-10-19T23:51:38.044Z,21.97
2018-10-19T23:54:06.518Z,22.53
2018-10-19T23:56:34.940Z,26.03
2018-10-19T23:59:03.495Z,29.73
